createdAt,value
2022-10-07T00:03:37.842Z,5.6
2022-10-07T00:13:37.811Z,5.6
2022-10-07T00:23:37.867Z,5.6
2022-10-07T00:43:37.926Z,5.3
2022-10-07T01:03:37.947Z,4.9
2022-10-07T01:23:37.977Z,5.1
2022-10-07T01:33:37.972Z,4.9
2022-10-07T01:43:38.034Z,5
2022-10-07T01:53:38.024Z,5.2
2022-10-07T02:03:38.162Z,5
2022-10-07T02:23:38.115Z,4.9
2022-10-07T02:43:38.168Z,4.7
2022-10-07T02:53:38.174Z,4.5
2022-10-07T03:23:38.258Z,4.7
2022-10-07T03:43:38.368Z,4.8
2022-10-07T04:03:38.346Z,4.9
2022-10-07T04:23:38.418Z,4.8
2022-10-07T04:33:38.404Z,4.9
2022-10-07T05:03:38.540Z,4.9
2022-10-07T05:13:38.493Z,4.9
2022-10-07T05:33:38.574Z,5.1
2022-10-07T06:03:38.644Z,5.6
2022-10-07T06:13:38.659Z,6.1
2022-10-07T06:43:38.749Z,7.5
2022-10-07T06:53:38.728Z,8.4
2022-10-07T07:13:40.304Z,9.8
2022-10-07T07:33:38.843Z,11.1
2022-10-07T08:23:38.933Z,16.8
2022-10-07T08:33:38.929Z,17.4
2022-10-07T08:53:38.972Z,19.1
2022-10-07T09:03:38.972Z,20.3
2022-10-07T09:13:39.016Z,19.4
2022-10-07T09:23:39.010Z,19.8
2022-10-07T09:33:39.030Z,18.4
2022-10-07T09:43:39.024Z,17.9
2022-10-07T09:53:39.067Z,16.2
2022-10-07T10:03:39.140Z,15.2
2022-10-07T10:13:39.102Z,15.1
2022-10-07T10:23:39.109Z,15.1
2022-10-07T10:33:39.163Z,15
2022-10-07T10:43:39.122Z,15.3
2022-10-07T10:53:39.174Z,15.9
2022-10-07T11:03:39.176Z,17.3
2022-10-07T11:13:39.197Z,17.7
2022-10-07T11:23:39.192Z,19.1
2022-10-07T11:33:39.328Z,20.4
2022-10-07T11:43:39.228Z,20.3
2022-10-07T11:53:39.281Z,21.3
2022-10-07T12:03:39.258Z,20.4
2022-10-07T12:13:39.292Z,21.6
2022-10-07T12:23:39.305Z,20.8
2022-10-07T12:33:39.344Z,23.4
2022-10-07T12:43:39.341Z,20.3
2022-10-07T12:53:39.406Z,22.3
2022-10-07T13:03:39.344Z,20.9
2022-10-07T13:13:39.406Z,18.4
2022-10-07T13:23:39.377Z,17.1
2022-10-07T13:33:39.411Z,16.8
2022-10-07T13:43:39.394Z,16.6
2022-10-07T14:03:39.460Z,16.2
2022-10-07T14:13:39.459Z,17
2022-10-07T14:23:39.511Z,16.8
2022-10-07T14:33:39.493Z,16.8
2022-10-07T14:43:39.535Z,17
2022-10-07T14:53:39.507Z,16.8
2022-10-07T15:03:39.625Z,16.1
2022-10-07T15:13:39.549Z,16.1
2022-10-07T15:23:39.594Z,15.8
2022-10-07T15:33:39.590Z,15.5
2022-10-07T15:43:39.635Z,15
2022-10-07T15:53:39.603Z,14.8
2022-10-07T16:03:39.686Z,14.8
2022-10-07T16:13:39.674Z,14.4
2022-10-07T16:23:39.693Z,14
2022-10-07T16:33:39.688Z,13.8
2022-10-07T16:43:39.755Z,13.4
2022-10-07T16:53:39.748Z,13.1
2022-10-07T17:03:39.874Z,12.8
2022-10-07T17:13:39.758Z,12.5
2022-10-07T17:23:39.800Z,12.3
2022-10-07T17:33:39.789Z,12.1
2022-10-07T17:43:39.837Z,11.8
2022-10-07T17:53:39.833Z,12.1
2022-10-07T18:03:40.040Z,12.8
2022-10-07T18:13:39.842Z,12.9
2022-10-07T18:23:39.947Z,12.9
2022-10-07T18:33:39.898Z,13.1
2022-10-07T18:43:39.925Z,13.2
2022-10-07T18:53:39.939Z,13.1
2022-10-07T19:03:39.994Z,12.8
2022-10-07T19:13:39.993Z,12.7
2022-10-07T19:23:40.025Z,12.9
2022-10-07T19:33:40.006Z,12.3
2022-10-07T19:43:40.084Z,12
2022-10-07T19:53:44.496Z,11.5
2022-10-07T20:03:40.084Z,11.1
2022-10-07T20:13:40.113Z,11.5
2022-10-07T20:23:40.146Z,11.5
2022-10-07T20:33:40.127Z,11.5
2022-10-07T20:43:40.167Z,11.2
2022-10-07T20:53:40.161Z,10.6
2022-10-07T21:03:40.215Z,10.3
2022-10-07T21:13:40.224Z,10.6
2022-10-07T21:23:40.261Z,10.6
2022-10-07T21:33:40.265Z,10.5
2022-10-07T21:43:40.308Z,10.1
2022-10-07T21:53:40.292Z,10.3
2022-10-07T22:03:40.308Z,10.1
2022-10-07T22:13:40.325Z,10
2022-10-07T22:23:40.373Z,9.9
2022-10-07T22:33:40.355Z,9.8
2022-10-07T22:43:40.427Z,9.5
2022-10-07T22:53:40.408Z,9.6
2022-10-07T23:03:40.597Z,9.7
2022-10-07T23:13:40.440Z,9.7
2022-10-07T23:23:40.464Z,9.7
2022-10-07T23:33:40.477Z,9.6
2022-10-07T23:43:40.536Z,9.3
2022-10-07T23:53:40.526Z,9.1
